Terminal Aerodrome Forecast
Issued by NWS

Current Version | Previous Version | Text Only | Print | Product List | Glossary On
Versions: 1 2 3 4 5 6 7 8 9 10 11 12 13 14
889
FTUS41 KBTV 260521
TAFSLK
TAF
KSLK 260521Z 2606/2706 24005KT P6SM SKC
      TEMPO 2608/2612 2SM BR SCT005
     FM261400 27009KT P6SM BKN040
     FM270200 VRB03KT P6SM SKC=

USA.gov is the U.S. government's official web portal to all federal, state and local government web resources and services.